sensor_id;sensor_type;location;lat;lon;timestamp;pressure;altitude;pressure_sealevel;temperature;humidity
48846;BME280;34665;51.886;5.436;2023-05-25T00:02:09;102446.97;;;18.44;100.00
48846;BME280;34665;51.886;5.436;2023-05-25T00:04:39;102443.63;;;18.42;100.00
48846;BME280;34665;51.886;5.436;2023-05-25T00:07:05;102445.47;;;18.01;100.00
48846;BME280;34665;51.886;5.436;2023-05-25T00:09:30;102447.78;;;18.04;100.00
48846;BME280;34665;51.886;5.436;2023-05-25T00:11:56;102442.16;;;18.12;100.00
48846;BME280;34665;51.886;5.436;2023-05-25T00:14:23;102442.38;;;18.17;100.00
48846;BME280;34665;51.886;5.436;2023-05-25T00:16:49;102449.47;;;18.05;100.00
48846;BME280;34665;51.886;5.436;2023-05-25T00:19:16;102440.50;;;18.11;100.00
48846;BME280;34665;51.886;5.436;2023-05-25T00:21:43;102436.13;;;18.10;100.00
48846;BME280;34665;51.886;5.436;2023-05-25T00:24:10;102446.94;;;18.03;100.00
48846;BME280;34665;51.886;5.436;2023-05-25T00:26:35;102444.03;;;18.05;100.00
48846;BME280;34665;51.886;5.436;2023-05-25T00:29:01;102443.63;;;18.08;100.00
48846;BME280;34665;51.886;5.436;2023-05-25T00:31:27;102443.16;;;17.98;100.00
48846;BME280;34665;51.886;5.436;2023-05-25T00:33:53;102442.78;;;18.08;100.00
48846;BME280;34665;51.886;5.436;2023-05-25T00:36:18;102462.38;;;18.03;100.00
48846;BME280;34665;51.886;5.436;2023-05-25T00:38:44;102456.06;;;17.96;100.00
48846;BME280;34665;51.886;5.436;2023-05-25T00:41:10;102448.28;;;17.66;100.00
48846;BME280;34665;51.886;5.436;2023-05-25T00:43:37;102453.50;;;17.74;100.00
48846;BME280;34665;51.886;5.436;2023-05-25T00:46:02;102449.19;;;17.86;100.00
48846;BME280;34665;51.886;5.436;2023-05-25T00:48:27;102457.31;;;17.93;100.00
48846;BME280;34665;51.886;5.436;2023-05-25T00:50:53;102447.31;;;17.80;100.00
48846;BME280;34665;51.886;5.436;2023-05-25T00:53:22;102455.19;;;17.82;100.00
48846;BME280;34665;51.886;5.436;2023-05-25T00:56:04;102456.25;;;17.81;100.00
48846;BME280;34665;51.886;5.436;2023-05-25T00:58:33;102449.78;;;17.75;100.00
48846;BME280;34665;51.886;5.436;2023-05-25T01:01:00;102447.06;;;17.68;100.00
48846;BME280;34665;51.886;5.436;2023-05-25T01:03:27;102449.38;;;17.71;100.00
48846;BME280;34665;51.886;5.436;2023-05-25T01:05:55;102446.84;;;17.70;100.00
48846;BME280;34665;51.886;5.436;2023-05-25T01:08:22;102442.06;;;17.72;100.00
48846;BME280;34665;51.886;5.436;2023-05-25T01:10:50;102452.25;;;17.70;100.00
48846;BME280;34665;51.886;5.436;2023-05-25T01:13:17;102450.59;;;17.69;100.00
48846;BME280;34665;51.886;5.436;2023-05-25T01:15:43;102460.38;;;17.70;100.00
48846;BME280;34665;51.886;5.436;2023-05-25T01:18:10;102451.38;;;17.56;100.00
48846;BME280;34665;51.886;5.436;2023-05-25T01:21:03;102452.44;;;17.55;100.00
48846;BME280;34665;51.886;5.436;2023-05-25T01:23:28;102458.44;;;17.50;100.00
48846;BME280;34665;51.886;5.436;2023-05-25T01:25:56;102460.09;;;17.51;100.00
48846;BME280;34665;51.886;5.436;2023-05-25T01:28:31;102462.59;;;17.46;100.00
48846;BME280;34665;51.886;5.436;2023-05-25T01:30:59;102467.09;;;17.32;100.00
48846;BME280;34665;51.886;5.436;2023-05-25T01:33:26;102461.31;;;17.42;100.00
48846;BME280;34665;51.886;5.436;2023-05-25T01:35:53;102471.28;;;17.41;100.00
48846;BME280;34665;51.886;5.436;2023-05-25T01:38:18;102468.38;;;17.36;100.00
48846;BME280;34665;51.886;5.436;2023-05-25T01:40:43;102475.25;;;17.39;100.00
48846;BME280;34665;51.886;5.436;2023-05-25T01:43:08;102476.69;;;17.34;100.00
48846;BME280;34665;51.886;5.436;2023-05-25T01:45:35;102475.69;;;17.42;100.00
48846;BME280;34665;51.886;5.436;2023-05-25T01:50:47;102484.19;;;17.39;100.00
48846;BME280;34665;51.886;5.436;2023-05-25T01:53:15;102489.19;;;17.36;100.00
48846;BME280;34665;51.886;5.436;2023-05-25T01:55:47;102486.63;;;17.27;100.00
48846;BME280;34665;51.886;5.436;2023-05-25T01:58:17;102489.59;;;17.32;100.00
48846;BME280;34665;51.886;5.436;2023-05-25T02:00:43;102492.28;;;17.32;100.00
48846;BME280;34665;51.886;5.436;2023-05-25T02:03:11;102477.88;;;17.25;100.00
48846;BME280;34665;51.886;5.436;2023-05-25T02:05:37;102483.41;;;17.10;100.00
48846;BME280;34665;51.886;5.436;2023-05-25T02:08:05;102483.78;;;17.00;100.00
48846;BME280;34665;51.886;5.436;2023-05-25T02:10:30;102480.88;;;17.02;100.00
48846;BME280;34665;51.886;5.436;2023-05-25T02:12:56;102478.59;;;16.99;100.00
48846;BME280;34665;51.886;5.436;2023-05-25T02:15:21;102480.44;;;16.98;100.00
48846;BME280;34665;51.886;5.436;2023-05-25T02:17:46;102476.84;;;16.91;100.00
48846;BME280;34665;51.886;5.436;2023-05-25T02:20:12;102472.19;;;16.78;100.00
48846;BME280;34665;51.886;5.436;2023-05-25T02:22:37;102476.78;;;16.84;100.00
48846;BME280;34665;51.886;5.436;2023-05-25T02:25:05;102474.66;;;16.80;100.00
48846;BME280;34665;51.886;5.436;2023-05-25T02:27:33;102482.94;;;16.71;100.00
48846;BME280;34665;51.886;5.436;2023-05-25T02:29:58;102475.00;;;16.70;100.00
48846;BME280;34665;51.886;5.436;2023-05-25T02:32:25;102474.88;;;16.78;100.00
48846;BME280;34665;51.886;5.436;2023-05-25T02:34:50;102470.28;;;16.78;100.00
48846;BME280;34665;51.886;5.436;2023-05-25T02:37:16;102470.94;;;16.81;100.00
48846;BME280;34665;51.886;5.436;2023-05-25T02:39:42;102477.13;;;16.74;100.00
48846;BME280;34665;51.886;5.436;2023-05-25T02:42:07;102473.78;;;16.72;100.00
48846;BME280;34665;51.886;5.436;2023-05-25T02:44:33;102472.56;;;16.75;100.00
48846;BME280;34665;51.886;5.436;2023-05-25T02:46:58;102479.66;;;16.76;100.00
48846;BME280;34665;51.886;5.436;2023-05-25T02:49:24;102480.81;;;16.67;100.00
48846;BME280;34665;51.886;5.436;2023-05-25T02:51:49;102484.38;;;16.67;100.00
48846;BME280;34665;51.886;5.436;2023-05-25T02:54:15;102491.03;;;16.71;100.00
48846;BME280;34665;51.886;5.436;2023-05-25T02:56:41;102490.34;;;16.62;100.00
48846;BME280;34665;51.886;5.436;2023-05-25T02:59:06;102496.13;;;16.59;100.00
48846;BME280;34665;51.886;5.436;2023-05-25T03:01:32;102497.47;;;16.70;100.00
48846;BME280;34665;51.886;5.436;2023-05-25T03:03:59;102500.69;;;16.59;100.00
48846;BME280;34665;51.886;5.436;2023-05-25T03:06:25;102496.47;;;16.49;100.00
48846;BME280;34665;51.886;5.436;2023-05-25T03:08:55;102492.38;;;16.32;100.00
48846;BME280;34665;51.886;5.436;2023-05-25T03:11:20;102495.19;;;16.45;100.00
48846;BME280;34665;51.886;5.436;2023-05-25T03:13:47;102497.69;;;16.47;100.00
48846;BME280;34665;51.886;5.436;2023-05-25T03:16:13;102493.94;;;16.48;100.00
48846;BME280;34665;51.886;5.436;2023-05-25T03:18:39;102495.84;;;16.26;100.00
48846;BME280;34665;51.886;5.436;2023-05-25T03:21:04;102499.25;;;16.34;100.00
48846;BME280;34665;51.886;5.436;2023-05-25T03:23:30;102498.41;;;16.34;100.00
48846;BME280;34665;51.886;5.436;2023-05-25T03:25:56;102498.06;;;16.44;100.00
48846;BME280;34665;51.886;5.436;2023-05-25T03:28:23;102494.66;;;16.35;100.00
48846;BME280;34665;51.886;5.436;2023-05-25T03:30:48;102498.22;;;16.36;100.00
48846;BME280;34665;51.886;5.436;2023-05-25T03:33:14;102494.81;;;16.27;100.00
48846;BME280;34665;51.886;5.436;2023-05-25T03:35:44;102505.38;;;16.22;100.00
48846;BME280;34665;51.886;5.436;2023-05-25T03:38:10;102508.31;;;16.27;100.00
48846;BME280;34665;51.886;5.436;2023-05-25T03:40:35;102507.50;;;16.26;100.00
48846;BME280;34665;51.886;5.436;2023-05-25T03:43:01;102511.19;;;16.25;100.00
48846;BME280;34665;51.886;5.436;2023-05-25T03:45:26;102504.97;;;16.25;100.00
48846;BME280;34665;51.886;5.436;2023-05-25T03:47:52;102517.81;;;16.23;100.00
48846;BME280;34665;51.886;5.436;2023-05-25T03:50:19;102515.38;;;16.28;100.00
48846;BME280;34665;51.886;5.436;2023-05-25T03:52:44;102519.56;;;16.30;100.00
48846;BME280;34665;51.886;5.436;2023-05-25T03:55:10;102512.94;;;16.33;100.00
48846;BME280;34665;51.886;5.436;2023-05-25T03:57:35;102524.06;;;16.45;100.00
48846;BME280;34665;51.886;5.436;2023-05-25T04:00:01;102527.22;;;16.48;100.00
48846;BME280;34665;51.886;5.436;2023-05-25T04:02:26;102530.78;;;16.34;100.00
48846;BME280;34665;51.886;5.436;2023-05-25T04:04:53;102531.44;;;16.36;100.00
48846;BME280;34665;51.886;5.436;2023-05-25T04:07:20;102528.75;;;16.36;100.00
48846;BME280;34665;51.886;5.436;2023-05-25T04:09:45;102532.22;;;16.30;100.00
48846;BME280;34665;51.886;5.436;2023-05-25T04:12:10;102537.88;;;16.35;100.00
48846;BME280;34665;51.886;5.436;2023-05-25T04:14:37;102536.47;;;16.39;100.00
48846;BME280;34665;51.886;5.436;2023-05-25T04:17:02;102540.06;;;16.46;100.00
48846;BME280;34665;51.886;5.436;2023-05-25T04:19:28;102538.66;;;16.51;100.00
48846;BME280;34665;51.886;5.436;2023-05-25T04:21:53;102538.91;;;16.56;100.00
48846;BME280;34665;51.886;5.436;2023-05-25T04:24:20;102537.63;;;16.52;100.00
48846;BME280;34665;51.886;5.436;2023-05-25T04:26:47;102537.69;;;16.58;100.00
48846;BME280;34665;51.886;5.436;2023-05-25T04:29:14;102536.97;;;16.49;100.00
48846;BME280;34665;51.886;5.436;2023-05-25T04:32:15;102538.91;;;16.56;100.00
48846;BME280;34665;51.886;5.436;2023-05-25T04:34:46;102535.28;;;16.70;100.00
48846;BME280;34665;51.886;5.436;2023-05-25T04:37:18;102543.41;;;16.70;100.00
48846;BME280;34665;51.886;5.436;2023-05-25T04:39:44;102536.31;;;16.69;100.00
48846;BME280;34665;51.886;5.436;2023-05-25T04:42:10;102548.22;;;16.75;100.00
48846;BME280;34665;51.886;5.436;2023-05-25T04:44:37;102550.22;;;16.66;100.00
48846;BME280;34665;51.886;5.436;2023-05-25T04:47:04;102550.31;;;16.80;100.00
48846;BME280;34665;51.886;5.436;2023-05-25T04:49:32;102549.16;;;16.89;100.00
48846;BME280;34665;51.886;5.436;2023-05-25T04:51:58;102551.34;;;17.00;100.00
48846;BME280;34665;51.886;5.436;2023-05-25T04:54:26;102548.44;;;17.02;100.00
48846;BME280;34665;51.886;5.436;2023-05-25T04:56:51;102550.34;;;17.08;100.00
48846;BME280;34665;51.886;5.436;2023-05-25T04:59:18;102566.41;;;17.10;100.00
48846;BME280;34665;51.886;5.436;2023-05-25T05:01:45;102560.81;;;17.18;100.00
48846;BME280;34665;51.886;5.436;2023-05-25T05:04:13;102565.19;;;17.19;100.00
48846;BME280;34665;51.886;5.436;2023-05-25T05:06:41;102572.22;;;17.13;100.00
48846;BME280;34665;51.886;5.436;2023-05-25T05:09:10;102571.41;;;17.13;100.00
48846;BME280;34665;51.886;5.436;2023-05-25T05:11:36;102579.81;;;17.25;100.00
48846;BME280;34665;51.886;5.436;2023-05-25T05:14:03;102581.75;;;17.38;100.00
48846;BME280;34665;51.886;5.436;2023-05-25T05:16:29;102584.28;;;17.46;100.00
48846;BME280;34665;51.886;5.436;2023-05-25T05:18:58;102587.75;;;17.33;100.00
48846;BME280;34665;51.886;5.436;2023-05-25T05:21:24;102588.84;;;17.39;100.00
48846;BME280;34665;51.886;5.436;2023-05-25T05:23:50;102590.97;;;17.50;100.00
48846;BME280;34665;51.886;5.436;2023-05-25T05:26:16;102590.81;;;17.58;100.00
48846;BME280;34665;51.886;5.436;2023-05-25T05:28:41;102592.50;;;17.59;100.00
48846;BME280;34665;51.886;5.436;2023-05-25T05:31:07;102597.72;;;17.68;100.00
48846;BME280;34665;51.886;5.436;2023-05-25T05:33:33;102594.16;;;17.60;100.00
48846;BME280;34665;51.886;5.436;2023-05-25T05:36:00;102600.03;;;17.71;100.00
48846;BME280;34665;51.886;5.436;2023-05-25T05:38:26;102601.00;;;17.56;100.00
48846;BME280;34665;51.886;5.436;2023-05-25T05:40:52;102605.03;;;17.74;100.00
48846;BME280;34665;51.886;5.436;2023-05-25T05:43:21;102608.22;;;17.84;100.00
48846;BME280;34665;51.886;5.436;2023-05-25T05:45:46;102611.38;;;17.95;100.00
48846;BME280;34665;51.886;5.436;2023-05-25T05:48:12;102608.47;;;17.96;100.00
48846;BME280;34665;51.886;5.436;2023-05-25T05:50:37;102618.28;;;17.97;100.00
48846;BME280;34665;51.886;5.436;2023-05-25T05:53:03;102603.31;;;17.59;100.00
48846;BME280;34665;51.886;5.436;2023-05-25T05:55:29;102610.25;;;18.11;100.00
48846;BME280;34665;51.886;5.436;2023-05-25T05:57:54;102611.50;;;18.15;100.00
48846;BME280;34665;51.886;5.436;2023-05-25T06:00:20;102611.53;;;18.35;100.00
48846;BME280;34665;51.886;5.436;2023-05-25T06:02:49;102619.66;;;18.35;100.00
48846;BME280;34665;51.886;5.436;2023-05-25T06:05:18;102626.19;;;18.47;100.00
48846;BME280;34665;51.886;5.436;2023-05-25T06:07:44;102627.00;;;18.48;100.00
48846;BME280;34665;51.886;5.436;2023-05-25T06:10:11;102627.63;;;18.57;100.00
48846;BME280;34665;51.886;5.436;2023-05-25T06:12:36;102630.78;;;18.60;100.00
48846;BME280;34665;51.886;5.436;2023-05-25T06:15:02;102631.59;;;18.47;100.00
48846;BME280;34665;51.886;5.436;2023-05-25T06:17:28;102632.88;;;18.58;100.00
48846;BME280;34665;51.886;5.436;2023-05-25T06:19:54;102628.72;;;18.69;100.00
48846;BME280;34665;51.886;5.436;2023-05-25T06:22:19;102637.72;;;19.03;100.00
48846;BME280;34665;51.886;5.436;2023-05-25T06:24:50;102640.41;;;18.83;100.00
48846;BME280;34665;51.886;5.436;2023-05-25T06:27:16;102642.69;;;18.86;100.00
48846;BME280;34665;51.886;5.436;2023-05-25T06:29:41;102637.69;;;18.83;100.00
48846;BME280;34665;51.886;5.436;2023-05-25T06:32:06;102644.16;;;18.96;100.00
48846;BME280;34665;51.886;5.436;2023-05-25T06:34:32;102645.44;;;19.20;100.00
48846;BME280;34665;51.886;5.436;2023-05-25T06:36:58;102650.66;;;19.08;100.00
48846;BME280;34665;51.886;5.436;2023-05-25T06:39:23;102649.59;;;19.36;100.00
48846;BME280;34665;51.886;5.436;2023-05-25T06:41:48;102652.94;;;19.45;100.00
48846;BME280;34665;51.886;5.436;2023-05-25T06:44:24;102653.50;;;19.60;100.00
48846;BME280;34665;51.886;5.436;2023-05-25T06:46:51;102669.75;;;19.81;100.00
48846;BME280;34665;51.886;5.436;2023-05-25T06:49:16;102666.53;;;20.17;100.00
48846;BME280;34665;51.886;5.436;2023-05-25T06:51:41;102668.63;;;20.15;100.00
48846;BME280;34665;51.886;5.436;2023-05-25T06:54:06;102669.50;;;20.09;100.00
48846;BME280;34665;51.886;5.436;2023-05-25T06:56:32;102673.81;;;20.24;100.00
48846;BME280;34665;51.886;5.436;2023-05-25T06:58:58;102679.00;;;20.32;100.00
48846;BME280;34665;51.886;5.436;2023-05-25T07:01:23;102671.63;;;20.46;100.00
48846;BME280;34665;51.886;5.436;2023-05-25T07:03:49;102672.13;;;20.61;100.00
48846;BME280;34665;51.886;5.436;2023-05-25T07:06:14;102676.75;;;20.61;99.04
48846;BME280;34665;51.886;5.436;2023-05-25T07:08:41;102670.72;;;20.59;98.58
48846;BME280;34665;51.886;5.436;2023-05-25T07:11:06;102665.84;;;20.68;99.41
48846;BME280;34665;51.886;5.436;2023-05-25T07:13:34;102666.00;;;20.73;98.46
48846;BME280;34665;51.886;5.436;2023-05-25T07:16:00;102670.00;;;20.70;96.47
48846;BME280;34665;51.886;5.436;2023-05-25T07:18:26;102672.06;;;20.82;94.02
48846;BME280;34665;51.886;5.436;2023-05-25T07:20:51;102672.44;;;21.11;90.27
48846;BME280;34665;51.886;5.436;2023-05-25T07:23:17;102681.28;;;21.31;88.86
48846;BME280;34665;51.886;5.436;2023-05-25T07:25:43;102678.84;;;21.23;89.75
48846;BME280;34665;51.886;5.436;2023-05-25T07:28:08;102677.81;;;21.68;88.51
48846;BME280;34665;51.886;5.436;2023-05-25T07:30:34;102686.34;;;22.09;85.77
48846;BME280;34665;51.886;5.436;2023-05-25T07:32:59;102692.25;;;22.06;85.32
48846;BME280;34665;51.886;5.436;2023-05-25T07:35:25;102700.41;;;22.25;84.17
48846;BME280;34665;51.886;5.436;2023-05-25T07:38:02;102695.41;;;22.40;80.77
48846;BME280;34665;51.886;5.436;2023-05-25T07:40:28;102695.72;;;22.62;79.60
48846;BME280;34665;51.886;5.436;2023-05-25T07:42:54;102687.19;;;22.59;78.26
48846;BME280;34665;51.886;5.436;2023-05-25T07:45:19;102694.75;;;22.57;77.82
48846;BME280;34665;51.886;5.436;2023-05-25T07:47:45;102698.03;;;22.77;75.75
48846;BME280;34665;51.886;5.436;2023-05-25T07:50:11;102695.69;;;22.93;74.56
48846;BME280;34665;51.886;5.436;2023-05-25T07:52:37;102694.06;;;23.16;74.65
48846;BME280;34665;51.886;5.436;2023-05-25T07:55:04;102697.31;;;23.48;71.58
48846;BME280;34665;51.886;5.436;2023-05-25T07:57:30;102703.38;;;23.39;71.25
48846;BME280;34665;51.886;5.436;2023-05-25T07:59:56;102706.81;;;23.58;71.20
48846;BME280;34665;51.886;5.436;2023-05-25T08:02:21;102709.44;;;23.41;70.52
48846;BME280;34665;51.886;5.436;2023-05-25T08:04:47;102710.91;;;23.13;71.78
48846;BME280;34665;51.886;5.436;2023-05-25T08:07:12;102717.63;;;23.65;68.77
48846;BME280;34665;51.886;5.436;2023-05-25T08:09:37;102722.00;;;23.66;67.59
48846;BME280;34665;51.886;5.436;2023-05-25T08:12:02;102727.81;;;23.93;66.42
48846;BME280;34665;51.886;5.436;2023-05-25T08:14:28;102733.50;;;23.91;65.97
48846;BME280;34665;51.886;5.436;2023-05-25T08:16:53;102739.22;;;24.02;65.96
48846;BME280;34665;51.886;5.436;2023-05-25T08:19:18;102736.00;;;24.05;66.26
48846;BME280;34665;51.886;5.436;2023-05-25T08:21:43;102736.50;;;24.02;66.49
48846;BME280;34665;51.886;5.436;2023-05-25T08:24:09;102737.28;;;24.14;65.52
48846;BME280;34665;51.886;5.436;2023-05-25T08:26:34;102736.78;;;24.17;65.60
48846;BME280;34665;51.886;5.436;2023-05-25T08:29:03;102732.47;;;24.33;64.78
48846;BME280;34665;51.886;5.436;2023-05-25T08:31:32;102736.66;;;24.24;63.87
48846;BME280;34665;51.886;5.436;2023-05-25T08:33:58;102745.31;;;24.91;63.40
48846;BME280;34665;51.886;5.436;2023-05-25T08:36:24;102745.09;;;25.10;63.39
48846;BME280;34665;51.886;5.436;2023-05-25T08:38:50;102742.53;;;25.20;60.81
48846;BME280;34665;51.886;5.436;2023-05-25T08:41:16;102749.63;;;24.87;60.62
48846;BME280;34665;51.886;5.436;2023-05-25T08:43:42;102745.31;;;24.91;60.16
48846;BME280;34665;51.886;5.436;2023-05-25T08:46:07;102742.47;;;25.15;60.06
48846;BME280;34665;51.886;5.436;2023-05-25T08:48:34;102742.53;;;25.20;60.13
48846;BME280;34665;51.886;5.436;2023-05-25T08:51:04;102752.63;;;24.85;60.37
48846;BME280;34665;51.886;5.436;2023-05-25T08:53:32;102752.84;;;24.84;59.82
48846;BME280;34665;51.886;5.436;2023-05-25T08:55:58;102746.88;;;24.58;60.65
48846;BME280;34665;51.886;5.436;2023-05-25T08:58:34;102751.41;;;24.52;60.41
48846;BME280;34665;51.886;5.436;2023-05-25T09:01:04;102747.50;;;24.48;60.44
48846;BME280;34665;51.886;5.436;2023-05-25T09:03:31;102756.94;;;24.81;59.78
48846;BME280;34665;51.886;5.436;2023-05-25T09:05:58;102752.47;;;25.26;58.79
48846;BME280;34665;51.886;5.436;2023-05-25T09:08:23;102747.25;;;25.42;58.29
48846;BME280;34665;51.886;5.436;2023-05-25T09:10:49;102745.91;;;25.44;58.12
48846;BME280;34665;51.886;5.436;2023-05-25T09:13:15;102743.69;;;25.58;57.32
48846;BME280;34665;51.886;5.436;2023-05-25T09:15:41;102746.88;;;25.89;55.94
48846;BME280;34665;51.886;5.436;2023-05-25T09:18:07;102751.66;;;26.22;55.17
48846;BME280;34665;51.886;5.436;2023-05-25T09:20:32;102752.47;;;26.00;55.03
48846;BME280;34665;51.886;5.436;2023-05-25T09:22:58;102755.22;;;26.00;54.88
48846;BME280;34665;51.886;5.436;2023-05-25T09:25:24;102758.63;;;25.90;54.65
48846;BME280;34665;51.886;5.436;2023-05-25T09:27:52;102757.53;;;25.69;54.74
48846;BME280;34665;51.886;5.436;2023-05-25T09:30:18;102748.47;;;25.85;54.66
48846;BME280;34665;51.886;5.436;2023-05-25T09:32:43;102757.44;;;24.95;56.11
48846;BME280;34665;51.886;5.436;2023-05-25T09:35:10;102755.56;;;25.47;55.51
48846;BME280;34665;51.886;5.436;2023-05-25T09:37:36;102760.53;;;25.33;54.96
48846;BME280;34665;51.886;5.436;2023-05-25T09:40:02;102754.72;;;25.63;54.12
48846;BME280;34665;51.886;5.436;2023-05-25T09:42:28;102750.59;;;25.83;53.13
48846;BME280;34665;51.886;5.436;2023-05-25T09:44:54;102755.53;;;26.75;51.73
48846;BME280;34665;51.886;5.436;2023-05-25T09:47:19;102746.47;;;27.73;49.71
48846;BME280;34665;51.886;5.436;2023-05-25T09:49:44;102754.47;;;28.43;48.04
48846;BME280;34665;51.886;5.436;2023-05-25T09:52:13;102748.75;;;29.33;45.56
48846;BME280;34665;51.886;5.436;2023-05-25T09:54:38;102746.28;;;30.28;43.89
48846;BME280;34665;51.886;5.436;2023-05-25T09:57:03;102751.13;;;30.92;41.52
48846;BME280;34665;51.886;5.436;2023-05-25T09:59:30;102751.69;;;31.24;40.27
48846;BME280;34665;51.886;5.436;2023-05-25T10:01:55;102760.16;;;31.03;39.87
48846;BME280;34665;51.886;5.436;2023-05-25T10:04:21;102761.25;;;31.02;39.73
48846;BME280;34665;51.886;5.436;2023-05-25T10:06:47;102751.44;;;30.40;39.91
48846;BME280;34665;51.886;5.436;2023-05-25T10:09:17;102746.28;;;29.21;40.63
48846;BME280;34665;51.886;5.436;2023-05-25T10:11:43;102754.84;;;28.99;41.45
48846;BME280;34665;51.886;5.436;2023-05-25T10:14:09;102750.22;;;28.10;42.97
48846;BME280;34665;51.886;5.436;2023-05-25T10:16:37;102748.97;;;28.43;43.30
48846;BME280;34665;51.886;5.436;2023-05-25T10:19:10;102741.31;;;29.28;42.49
48846;BME280;34665;51.886;5.436;2023-05-25T10:21:36;102744.59;;;29.51;41.03
48846;BME280;34665;51.886;5.436;2023-05-25T10:24:14;102743.00;;;28.88;41.68
48846;BME280;34665;51.886;5.436;2023-05-25T10:26:46;102748.19;;;28.74;42.02
48846;BME280;34665;51.886;5.436;2023-05-25T10:29:13;102755.63;;;28.68;41.96
48846;BME280;34665;51.886;5.436;2023-05-25T10:31:40;102753.63;;;28.32;42.59
48846;BME280;34665;51.886;5.436;2023-05-25T10:34:06;102748.88;;;27.64;43.28
48846;BME280;34665;51.886;5.436;2023-05-25T10:36:32;102748.72;;;27.86;43.41
48846;BME280;34665;51.886;5.436;2023-05-25T10:38:57;102752.63;;;28.01;43.40
48846;BME280;34665;51.886;5.436;2023-05-25T10:41:23;102751.13;;;28.36;42.97
48846;BME280;34665;51.886;5.436;2023-05-25T10:43:49;102753.72;;;29.15;41.47
48846;BME280;34665;51.886;5.436;2023-05-25T10:46:16;102747.34;;;28.63;42.05
48846;BME280;34665;51.886;5.436;2023-05-25T10:48:46;102754.72;;;28.31;42.12
48846;BME280;34665;51.886;5.436;2023-05-25T10:51:13;102753.38;;;28.60;42.17
48846;BME280;34665;51.886;5.436;2023-05-25T10:53:42;102748.16;;;28.69;42.35
48846;BME280;34665;51.886;5.436;2023-05-25T10:56:07;102755.41;;;30.24;40.52
48846;BME280;34665;51.886;5.436;2023-05-25T10:58:35;102749.66;;;31.59;39.10
48846;BME280;34665;51.886;5.436;2023-05-25T11:01:05;102753.72;;;31.42;37.94
48846;BME280;34665;51.886;5.436;2023-05-25T11:06:10;102756.28;;;30.69;38.55
48846;BME280;34665;51.886;5.436;2023-05-25T11:11:13;102747.34;;;29.61;40.71
48846;BME280;34665;51.886;5.436;2023-05-25T11:13:43;102746.28;;;29.31;41.50
48846;BME280;34665;51.886;5.436;2023-05-25T11:18:48;102750.94;;;30.78;39.91
48846;BME280;34665;51.886;5.436;2023-05-25T11:23:52;102752.47;;;34.98;33.95
48846;BME280;34665;51.886;5.436;2023-05-25T11:26:28;102753.50;;;35.92;32.77
48846;BME280;34665;51.886;5.436;2023-05-25T11:28:53;102757.19;;;36.80;31.67
48846;BME280;34665;51.886;5.436;2023-05-25T11:31:30;102756.38;;;36.27;31.25
48846;BME280;34665;51.886;5.436;2023-05-25T11:33:57;102749.78;;;34.61;32.60
48846;BME280;34665;51.886;5.436;2023-05-25T11:36:23;102742.66;;;33.53;33.98
48846;BME280;34665;51.886;5.436;2023-05-25T11:38:49;102741.22;;;32.56;34.68
48846;BME280;34665;51.886;5.436;2023-05-25T11:41:17;102736.28;;;32.53;34.81
48846;BME280;34665;51.886;5.436;2023-05-25T11:43:49;102738.41;;;32.42;34.95
48846;BME280;34665;51.886;5.436;2023-05-25T11:46:18;102723.03;;;31.93;35.74
48846;BME280;34665;51.886;5.436;2023-05-25T11:48:44;102717.06;;;31.80;35.17
48846;BME280;34665;51.886;5.436;2023-05-25T11:51:10;102725.59;;;32.46;34.86
48846;BME280;34665;51.886;5.436;2023-05-25T11:53:40;102721.03;;;32.37;34.97
48846;BME280;34665;51.886;5.436;2023-05-25T11:56:05;102720.38;;;31.58;35.42
48846;BME280;34665;51.886;5.436;2023-05-25T11:58:34;102712.78;;;31.20;35.43
48846;BME280;34665;51.886;5.436;2023-05-25T12:01:12;102712.75;;;30.90;35.43
48846;BME280;34665;51.886;5.436;2023-05-25T12:03:38;102709.19;;;30.85;35.87
48846;BME280;34665;51.886;5.436;2023-05-25T12:06:04;102706.59;;;30.64;35.73
48846;BME280;34665;51.886;5.436;2023-05-25T12:08:36;102707.34;;;31.04;35.87
48846;BME280;34665;51.886;5.436;2023-05-25T12:11:01;102714.59;;;31.54;35.59
48846;BME280;34665;51.886;5.436;2023-05-25T12:13:27;102711.69;;;32.32;33.96
48846;BME280;34665;51.886;5.436;2023-05-25T12:15:55;102710.78;;;34.29;33.40
48846;BME280;34665;51.886;5.436;2023-05-25T12:18:27;102707.84;;;36.01;32.12
48846;BME280;34665;51.886;5.436;2023-05-25T12:20:54;102715.41;;;36.10;30.30
48846;BME280;34665;51.886;5.436;2023-05-25T12:23:20;102715.22;;;35.30;29.28
48846;BME280;34665;51.886;5.436;2023-05-25T12:25:45;102718.25;;;35.20;29.58
48846;BME280;34665;51.886;5.436;2023-05-25T12:28:12;102716.16;;;35.75;29.56
48846;BME280;34665;51.886;5.436;2023-05-25T12:30:38;102712.63;;;36.54;28.13
48846;BME280;34665;51.886;5.436;2023-05-25T12:33:03;102710.34;;;37.51;27.28
48846;BME280;34665;51.886;5.436;2023-05-25T12:35:30;102707.56;;;36.56;28.59
48846;BME280;34665;51.886;5.436;2023-05-25T12:38:08;102712.63;;;34.80;31.46
48846;BME280;34665;51.886;5.436;2023-05-25T12:40:33;102710.22;;;34.18;32.35
48846;BME280;34665;51.886;5.436;2023-05-25T12:42:58;102708.94;;;35.56;31.06
48846;BME280;34665;51.886;5.436;2023-05-25T12:45:24;102706.03;;;35.30;30.52
48846;BME280;34665;51.886;5.436;2023-05-25T12:47:49;102710.50;;;34.54;31.62
48846;BME280;34665;51.886;5.436;2023-05-25T12:50:15;102708.78;;;34.07;32.83
48846;BME280;34665;51.886;5.436;2023-05-25T12:52:41;102701.47;;;34.11;31.74
48846;BME280;34665;51.886;5.436;2023-05-25T12:55:21;102705.56;;;34.73;31.79
48846;BME280;34665;51.886;5.436;2023-05-25T12:57:47;102700.69;;;33.41;31.77